Time;durP1;ratioP1;P1;durP2;ratioP2;P2;SDS_P1;SDS_P2;PMS_P1;PMS_P2;Temp;Humidity;BMP_temperature;BMP_pressure;BME280_temperature;BME280_humidity;BME280_pressure;Samples;Min_cycle;Max_cycle;Signal;HPM_P1;HPM_P2
2021/06/25 00:01:57;;;;;;;22.58;6.30;;;666.40;2099.20;;;;;;4978144;28;20426;-82
2021/06/25 00:04:23;;;;;;;17.30;6.13;;;666.30;2099.20;;;;;;4979280;28;20027;-80
2021/06/25 00:06:49;;;;;;;23.85;5.35;;;666.20;2150.40;;;;;;4978948;28;20025;-84
2021/06/25 00:09:15;;;;;;;20.00;5.72;;;666.10;2150.40;;;;;;4979066;28;20022;-81
2021/06/25 00:11:40;;;;;;;23.40;7.13;;;666.00;2150.40;;;;;;4977719;28;20026;-82
2021/06/25 00:14:06;;;;;;;19.45;5.40;;;666.00;2176.00;;;;;;4978920;28;20026;-82
2021/06/25 00:16:33;;;;;;;23.17;5.57;;;665.90;2201.60;;;;;;4981177;28;20023;-80
2021/06/25 00:18:59;;;;;;;26.05;5.95;;;665.90;2201.60;;;;;;4981242;28;20030;-80
2021/06/25 00:21:25;;;;;;;23.60;5.70;;;665.90;2201.60;;;;;;4977648;28;20459;-84
2021/06/25 00:23:51;;;;;;;23.50;6.30;;;665.80;2201.60;;;;;;4977223;28;20030;-83
2021/06/25 00:26:17;;;;;;;21.42;5.88;;;665.70;2201.60;;;;;;4977337;28;20031;-81
2021/06/25 00:28:43;;;;;;;19.73;5.25;;;640.90;2176.00;;;;;;4977094;28;20470;-79
2021/06/25 00:31:09;;;;;;;21.75;5.85;;;640.90;2176.00;;;;;;4977243;28;20109;-81
2021/06/25 00:33:35;;;;;;;24.70;4.93;;;640.90;2201.60;;;;;;4978256;28;20050;-83
2021/06/25 00:36:01;;;;;;;16.23;5.25;;;665.60;2176.00;;;;;;4977820;28;20105;-82
2021/06/25 00:38:27;;;;;;;23.75;5.70;;;640.90;2227.20;;;;;;4977285;28;20030;-81
2021/06/25 00:40:53;;;;;;;18.77;5.07;;;640.70;2252.80;;;;;;4977358;28;20033;-83
2021/06/25 00:43:19;;;;;;;20.67;5.50;;;640.60;2252.80;;;;;;4976754;28;20026;-83
2021/06/25 00:45:45;;;;;;;18.50;6.07;;;640.70;2252.80;;;;;;4977259;28;20030;-82
2021/06/25 00:48:10;;;;;;;21.45;6.03;;;640.50;2278.40;;;;;;4977118;28;20030;-82
2021/06/25 00:50:37;;;;;;;26.65;6.22;;;640.60;2278.40;;;;;;4976838;28;20319;-82
2021/06/25 00:53:04;;;;;;;18.75;5.50;;;640.40;2278.40;;;;;;4976927;28;20121;-82
2021/06/25 00:55:44;;;;;;;26.30;5.68;;;640.40;2304.00;;;;;;4978030;28;20059;-82
2021/06/25 00:58:16;;;;;;;16.15;4.35;;;640.40;2304.00;;;;;;4977929;28;20043;-81
2021/06/25 01:00:42;;;;;;;24.50;6.00;;;640.30;2304.00;;;;;;4976774;28;20367;-81
2021/06/25 01:03:08;;;;;;;19.05;5.70;;;640.30;2278.40;;;;;;4975459;28;20027;-83
2021/06/25 01:05:34;;;;;;;18.67;5.50;;;640.10;2355.20;;;;;;4977815;28;20033;-81
2021/06/25 01:08:01;;;;;;;25.00;5.90;;;640.10;2355.20;;;;;;4976871;28;20030;-83
2021/06/25 01:10:27;;;;;;;29.25;6.45;;;640.00;2329.60;;;;;;4976975;28;20239;-82
2021/06/25 01:12:53;;;;;;;19.10;5.93;;;615.10;2329.60;;;;;;4977090;28;20023;-80
2021/06/25 01:15:19;;;;;;;19.92;5.60;;;640.00;2355.20;;;;;;4976745;28;20082;-81
2021/06/25 01:17:46;;;;;;;19.92;5.72;;;640.00;2355.20;;;;;;4976863;28;20027;-81
2021/06/25 01:20:15;;;;;;;23.25;5.40;;;615.30;2380.80;;;;;;4977960;28;20082;-80
2021/06/25 01:22:42;;;;;;;27.02;6.22;;;640.00;2406.40;;;;;;4977673;28;20030;-82
2021/06/25 01:25:17;;;;;;;24.98;5.95;;;615.20;2406.40;;;;;;4976222;28;20027;-82
2021/06/25 01:27:45;;;;;;;22.13;4.70;;;615.20;2406.40;;;;;;4976516;28;20023;-81
2021/06/25 01:30:16;;;;;;;19.98;6.07;;;615.10;2406.40;;;;;;4976000;28;20023;-84
2021/06/25 01:32:43;;;;;;;24.50;5.45;;;614.90;2432.00;;;;;;4976026;28;20410;-82
2021/06/25 01:35:10;;;;;;;22.25;5.88;;;614.80;2432.00;;;;;;4977272;28;20035;-79
2021/06/25 01:37:37;;;;;;;24.92;6.75;;;614.90;2432.00;;;;;;4976151;28;20023;-81
2021/06/25 01:40:04;;;;;;;26.63;6.45;;;614.80;2432.00;;;;;;4975725;28;20022;-79
2021/06/25 01:42:33;;;;;;;19.90;5.32;;;614.90;2406.40;;;;;;4976113;28;20447;-81
2021/06/25 01:45:04;;;;;;;25.23;7.03;;;614.90;2380.80;;;;;;4975724;28;20463;-81
2021/06/25 01:47:29;;;;;;;22.52;5.80;;;614.70;2432.00;;;;;;4976929;28;20113;-82
2021/06/25 01:49:55;;;;;;;16.67;5.43;;;614.80;2432.00;;;;;;4975958;28;20525;-82
2021/06/25 01:52:21;;;;;;;22.75;5.30;;;614.70;2432.00;;;;;;4975703;28;20046;-82
2021/06/25 01:54:48;;;;;;;24.45;5.57;;;614.60;2432.00;;;;;;4975310;28;20137;-82
2021/06/25 01:57:15;;;;;;;17.23;4.93;;;614.60;2432.00;;;;;;4975762;28;20030;-82
2021/06/25 01:59:41;;;;;;;16.80;5.88;;;614.70;2432.00;;;;;;4975575;28;20458;-80
2021/06/25 02:02:07;;;;;;;23.98;5.78;;;614.70;2432.00;;;;;;4975594;28;20034;-80
2021/06/25 02:04:33;;;;;;;30.73;5.85;;;614.70;2432.00;;;;;;4975881;28;20533;-79
2021/06/25 02:06:59;;;;;;;17.95;6.78;;;614.50;2432.00;;;;;;4975568;28;20102;-82
2021/06/25 02:09:25;;;;;;;16.35;4.97;;;614.50;2432.00;;;;;;4975558;28;20058;-80
2021/06/25 02:11:50;;;;;;;21.92;5.38;;;614.50;2432.00;;;;;;4975471;28;20462;-82
2021/06/25 02:14:18;;;;;;;22.45;5.35;;;614.50;2432.00;;;;;;4976286;28;20082;-81
2021/06/25 02:16:44;;;;;;;26.35;5.85;;;589.70;2432.00;;;;;;4975489;28;20114;-81
2021/06/25 02:19:10;;;;;;;19.98;5.80;;;589.70;2432.00;;;;;;4975290;28;20057;-82
2021/06/25 02:21:36;;;;;;;24.17;5.32;;;589.50;2432.00;;;;;;4976293;28;20030;-83
2021/06/25 02:24:01;;;;;;;20.95;6.05;;;589.50;2432.00;;;;;;4975254;28;20053;-84
2021/06/25 02:26:27;;;;;;;25.00;7.65;;;589.40;2432.00;;;;;;4975190;28;20056;-84
2021/06/25 02:28:53;;;;;;;20.13;5.75;;;589.50;2432.00;;;;;;4974754;28;20448;-80
2021/06/25 02:31:19;;;;;;;18.70;6.00;;;589.30;2432.00;;;;;;4975314;28;20033;-84
2021/06/25 02:33:45;;;;;;;20.38;5.30;;;589.30;2432.00;;;;;;4974974;28;20026;-82
2021/06/25 02:36:11;;;;;;;22.95;5.13;;;589.30;2432.00;;;;;;4975889;28;20027;-81
2021/06/25 02:38:37;;;;;;;28.58;6.60;;;589.50;2432.00;;;;;;4975049;28;20446;-82
2021/06/25 02:41:03;;;;;;;22.35;4.95;;;589.50;2432.00;;;;;;4975044;28;20019;-81
2021/06/25 02:43:29;;;;;;;24.85;6.95;;;589.30;2432.00;;;;;;4975309;28;20372;-82
2021/06/25 02:45:55;;;;;;;21.60;5.85;;;589.20;2432.00;;;;;;4975235;28;20022;-84
2021/06/25 02:48:21;;;;;;;21.98;5.88;;;589.10;2432.00;;;;;;4974753;28;20026;-81
2021/06/25 02:50:47;;;;;;;22.80;6.35;;;588.90;2432.00;;;;;;4974542;28;20034;-83
2021/06/25 02:53:13;;;;;;;22.80;4.78;;;588.80;2432.00;;;;;;4974764;28;20031;-83
2021/06/25 02:55:51;;;;;;;14.90;4.70;;;588.90;2432.00;;;;;;4974465;28;20466;-83
2021/06/25 02:58:21;;;;;;;12.70;5.13;;;588.90;2432.00;;;;;;4975243;28;20027;-80
2021/06/25 03:00:48;;;;;;;26.35;6.53;;;564.10;2432.00;;;;;;4975111;28;20026;-82
2021/06/25 03:03:14;;;;;;;22.75;5.50;;;564.10;2432.00;;;;;;4975002;28;20113;-82
2021/06/25 03:05:40;;;;;;;19.60;5.45;;;588.90;2432.00;;;;;;4975340;28;20047;-82
2021/06/25 03:08:06;;;;;;;22.38;5.05;;;564.10;2432.00;;;;;;4974854;28;20367;-81
2021/06/25 03:10:32;;;;;;;22.33;6.35;;;563.90;2432.00;;;;;;4974280;28;20025;-81
2021/06/25 03:12:58;;;;;;;16.92;4.95;;;563.90;2432.00;;;;;;4974319;28;20031;-84
2021/06/25 03:15:23;;;;;;;19.90;5.68;;;564.10;2432.00;;;;;;4974444;28;20065;-84
2021/06/25 03:17:49;;;;;;;20.23;5.40;;;563.80;2432.00;;;;;;4975004;28;20081;-82
2021/06/25 03:20:16;;;;;;;16.13;5.35;;;563.90;2432.00;;;;;;4974413;28;20069;-80
2021/06/25 03:22:42;;;;;;;19.02;6.38;;;563.70;2432.00;;;;;;4974555;28;20031;-80
2021/06/25 03:25:08;;;;;;;24.95;7.85;;;564.00;2432.00;;;;;;4974260;28;20081;-80
2021/06/25 03:27:34;;;;;;;23.70;5.90;;;563.80;2432.00;;;;;;4973808;28;20018;-81
2021/06/25 03:30:00;;;;;;;16.70;5.78;;;564.00;2432.00;;;;;;4975274;28;20046;-79
2021/06/25 03:32:26;;;;;;;23.42;5.78;;;563.70;2432.00;;;;;;4977314;28;20027;-81
2021/06/25 03:34:52;;;;;;;24.15;5.45;;;563.70;2432.00;;;;;;4977780;28;20110;-81
2021/06/25 03:37:18;;;;;;;24.33;6.32;;;563.90;2432.00;;;;;;4975396;28;20434;-80
2021/06/25 03:39:44;;;;;;;23.27;5.82;;;564.00;2432.00;;;;;;4973912;28;20023;-80
2021/06/25 03:42:09;;;;;;;25.50;5.25;;;563.80;2432.00;;;;;;4975050;28;20019;-84
2021/06/25 03:44:35;;;;;;;21.48;7.00;;;563.90;2432.00;;;;;;4974112;28;20062;-84
2021/06/25 03:47:01;;;;;;;26.42;6.28;;;564.10;2432.00;;;;;;4973827;28;20074;-81
2021/06/25 03:49:27;;;;;;;28.67;6.07;;;564.10;2432.00;;;;;;4974001;28;20113;-81
2021/06/25 03:51:53;;;;;;;16.65;5.22;;;564.10;2432.00;;;;;;4973788;28;20122;-82
2021/06/25 03:54:18;;;;;;;25.25;6.75;;;588.80;2432.00;;;;;;4973529;28;20101;-83
2021/06/25 03:56:44;;;;;;;23.38;7.63;;;588.90;2432.00;;;;;;4975322;28;20443;-80
2021/06/25 03:59:10;;;;;;;24.73;8.25;;;564.10;2432.00;;;;;;4974008;28;20069;-81
2021/06/25 04:01:36;;;;;;;27.25;6.75;;;588.90;2432.00;;;;;;4974081;28;20026;-80
2021/06/25 04:04:02;;;;;;;28.73;6.82;;;588.80;2432.00;;;;;;4973924;28;20030;-81
2021/06/25 04:06:27;;;;;;;26.85;7.63;;;564.10;2432.00;;;;;;4973583;28;20023;-82
2021/06/25 04:08:53;;;;;;;22.33;7.53;;;563.90;2432.00;;;;;;4973937;28;20023;-83
2021/06/25 04:11:19;;;;;;;26.50;7.07;;;563.80;2432.00;;;;;;4974054;28;20370;-81
2021/06/25 04:13:46;;;;;;;20.85;6.90;;;588.80;2432.00;;;;;;4973929;28;20029;-81
2021/06/25 04:16:12;;;;;;;23.38;7.25;;;563.70;2432.00;;;;;;4973759;28;20027;-82
2021/06/25 04:18:38;;;;;;;20.48;7.13;;;563.80;2432.00;;;;;;4975266;28;20161;-83
2021/06/25 04:21:04;;;;;;;17.77;6.38;;;563.80;2432.00;;;;;;4973961;28;20109;-81
2021/06/25 04:23:30;;;;;;;23.80;6.13;;;563.80;2432.00;;;;;;4973893;28;20033;-82
2021/06/25 04:25:56;;;;;;;19.40;6.75;;;563.70;2432.00;;;;;;4973833;28;20031;-82
2021/06/25 04:28:23;;;;;;;24.05;7.70;;;563.80;2432.00;;;;;;4974814;28;20031;-84
2021/06/25 04:30:50;;;;;;;24.00;6.80;;;563.90;2432.00;;;;;;4973818;28;20110;-85
2021/06/25 04:33:16;;;;;;;22.15;6.03;;;564.00;2432.00;;;;;;4973849;28;20030;-84
2021/06/25 04:35:43;;;;;;;26.02;7.18;;;564.00;2432.00;;;;;;4973498;28;20348;-82
2021/06/25 04:38:09;;;;;;;25.02;6.45;;;563.80;2432.00;;;;;;4975623;28;20447;-83
2021/06/25 04:40:41;;;;;;;18.40;8.35;;;563.90;2432.00;;;;;;4977215;28;20029;-81
2021/06/25 04:43:08;;;;;;;30.17;7.47;;;564.10;2432.00;;;;;;4977031;28;20022;-81
2021/06/25 04:45:39;;;;;;;20.05;7.10;;;564.00;2432.00;;;;;;4976904;28;20086;-83
2021/06/25 04:48:06;;;;;;;27.08;6.65;;;563.90;2432.00;;;;;;4978000;28;20455;-82
2021/06/25 04:50:33;;;;;;;28.55;6.60;;;564.00;2432.00;;;;;;4977055;28;20054;-81
2021/06/25 04:52:59;;;;;;;21.85;7.70;;;564.00;2432.00;;;;;;4976901;28;20122;-81
2021/06/25 04:55:25;;;;;;;21.33;6.25;;;564.00;2432.00;;;;;;4976108;28;20094;-83
2021/06/25 04:57:55;;;;;;;22.02;5.75;;;564.10;2432.00;;;;;;4976789;28;20026;-82
2021/06/25 05:00:24;;;;;;;25.15;8.73;;;564.00;2432.00;;;;;;4978102;28;20077;-81
2021/06/25 05:02:50;;;;;;;18.50;5.88;;;564.00;2432.00;;;;;;4977518;28;20106;-79
2021/06/25 05:05:17;;;;;;;23.17;6.45;;;564.10;2432.00;;;;;;4976280;28;20027;-82
2021/06/25 05:07:43;;;;;;;21.48;6.75;;;589.30;2432.00;;;;;;4976622;28;20427;-82
2021/06/25 05:10:10;;;;;;;29.15;6.68;;;564.10;2432.00;;;;;;4977459;28;20027;-79
2021/06/25 05:12:36;;;;;;;18.75;5.90;;;588.80;2432.00;;;;;;4976582;28;20089;-81
2021/06/25 05:15:03;;;;;;;23.20;7.93;;;588.80;2432.00;;;;;;4976567;28;20041;-80
2021/06/25 05:17:29;;;;;;;25.95;6.30;;;588.80;2432.00;;;;;;4976303;28;20027;-82
2021/06/25 05:19:55;;;;;;;19.95;6.57;;;588.90;2432.00;;;;;;4976477;28;20034;-83
2021/06/25 05:22:21;;;;;;;30.65;7.95;;;589.00;2432.00;;;;;;4976338;28;20450;-82
2021/06/25 05:24:47;;;;;;;25.40;7.43;;;589.10;2432.00;;;;;;4976475;28;20086;-80
2021/06/25 05:27:12;;;;;;;21.65;7.03;;;589.20;2432.00;;;;;;4976063;28;20445;-83
2021/06/25 05:29:38;;;;;;;20.58;7.03;;;589.20;2432.00;;;;;;4976344;28;20019;-80
2021/06/25 05:32:04;;;;;;;26.05;7.45;;;589.30;2432.00;;;;;;4976238;28;20359;-80
2021/06/25 05:34:30;;;;;;;25.55;7.53;;;615.00;2432.00;;;;;;4975959;28;20514;-80
2021/06/25 05:36:56;;;;;;;24.92;7.57;;;589.60;2432.00;;;;;;4976016;28;20026;-80
2021/06/25 05:39:22;;;;;;;26.40;7.43;;;589.70;2432.00;;;;;;4975980;28;20023;-80
2021/06/25 05:41:48;;;;;;;23.17;8.50;;;589.70;2432.00;;;;;;4977361;28;20026;-82
2021/06/25 05:44:14;;;;;;;26.52;8.05;;;589.70;2432.00;;;;;;4975655;28;20078;-84
2021/06/25 05:46:40;;;;;;;27.58;8.68;;;589.70;2432.00;;;;;;4975947;28;20411;-82
2021/06/25 05:49:06;;;;;;;23.40;8.38;;;589.70;2432.00;;;;;;4976389;28;20019;-80
2021/06/25 05:51:32;;;;;;;31.65;8.68;;;614.50;2432.00;;;;;;4975780;28;20019;-81
2021/06/25 05:53:58;;;;;;;24.50;9.70;;;614.50;2432.00;;;;;;4975319;28;20080;-81
2021/06/25 05:56:24;;;;;;;24.75;7.13;;;614.70;2432.00;;;;;;4975715;28;20038;-79
2021/06/25 05:58:50;;;;;;;37.15;9.88;;;614.80;2432.00;;;;;;4975395;28;20022;-83
2021/06/25 06:01:16;;;;;;;24.45;8.10;;;615.00;2432.00;;;;;;4975710;28;20082;-81
2021/06/25 06:03:42;;;;;;;33.78;9.13;;;614.70;2432.00;;;;;;4975730;28;20023;-81
2021/06/25 06:06:08;;;;;;;30.95;8.73;;;615.00;2432.00;;;;;;4975633;28;20034;-82
2021/06/25 06:08:37;;;;;;;27.85;8.45;;;615.10;2432.00;;;;;;4975599;28;20066;-82
2021/06/25 06:11:03;;;;;;;22.52;8.93;;;615.20;2432.00;;;;;;4975562;28;20030;-80
2021/06/25 06:13:29;;;;;;;29.58;9.57;;;640.00;2432.00;;;;;;4975185;28;20109;-81
2021/06/25 06:15:56;;;;;;;28.77;7.60;;;640.10;2432.00;;;;;;4975083;28;20117;-81
2021/06/25 06:18:29;;;;;;;30.35;9.18;;;640.20;2432.00;;;;;;4975302;28;20026;-81
2021/06/25 06:20:55;;;;;;;26.80;8.07;;;640.30;2432.00;;;;;;4975692;28;20039;-83
2021/06/25 06:31:33;;;;;;;27.13;7.80;;;640.70;2432.00;;;;;;4976353;28;20042;-80
2021/06/25 06:34:12;;;;;;;26.95;8.63;;;640.80;2432.00;;;;;;4975053;28;20108;-80
2021/06/25 06:36:45;;;;;;;30.35;7.45;;;665.60;2432.00;;;;;;4974867;28;20374;-80
2021/06/25 06:39:15;;;;;;;33.63;7.75;;;665.60;2432.00;;;;;;4976041;28;20026;-80
2021/06/25 06:41:42;;;;;;;24.63;8.07;;;665.80;2432.00;;;;;;4976215;28;20065;-81
2021/06/25 06:44:08;;;;;;;31.60;9.73;;;665.90;2432.00;;;;;;4974609;28;20462;-82
2021/06/25 06:46:35;;;;;;;28.98;8.45;;;666.00;2432.00;;;;;;4975047;28;20100;-83
2021/06/25 06:49:02;;;;;;;29.05;6.65;;;666.20;2432.00;;;;;;4976412;28;20031;-81
2021/06/25 06:51:28;;;;;;;20.88;6.05;;;666.50;2432.00;;;;;;4976294;28;20051;-79
2021/06/25 06:53:57;;;;;;;20.85;6.70;;;666.50;2432.00;;;;;;4974747;28;20054;-80
2021/06/25 06:56:24;;;;;;;24.08;7.40;;;691.20;2432.00;;;;;;4974689;28;20049;-80
2021/06/25 06:58:52;;;;;;;21.52;6.75;;;691.30;2432.00;;;;;;4975782;28;20022;-82
2021/06/25 07:01:19;;;;;;;23.83;6.63;;;691.30;2432.00;;;;;;4973594;28;20033;-82
2021/06/25 07:03:44;;;;;;;25.00;6.78;;;691.60;2432.00;;;;;;4974469;28;20034;-82
2021/06/25 07:06:10;;;;;;;21.17;6.50;;;691.80;2432.00;;;;;;4975474;28;20034;-81
2021/06/25 07:08:36;;;;;;;24.30;7.32;;;692.10;2432.00;;;;;;4974422;28;20023;-80
2021/06/25 07:11:02;;;;;;;43.67;19.40;;;716.80;2432.00;;;;;;4974328;28;20030;-83
2021/06/25 07:13:28;;;;;;;40.40;15.18;;;716.90;2432.00;;;;;;4975523;28;20034;-81
2021/06/25 07:15:55;;;;;;;30.73;10.48;;;717.10;2432.00;;;;;;4974194;28;20039;-84
2021/06/25 07:18:22;;;;;;;28.00;7.82;;;717.40;2406.40;;;;;;4973956;28;20030;-84
2021/06/25 07:20:48;;;;;;;23.27;8.63;;;717.40;2380.80;;;;;;4974179;28;20497;-84
2021/06/25 07:23:14;;;;;;;26.20;8.05;;;717.50;2380.80;;;;;;4973880;28;20089;-83
2021/06/25 07:25:40;;;;;;;26.58;6.90;;;717.70;2380.80;;;;;;4974006;28;20522;-83
2021/06/25 07:28:06;;;;;;;26.50;6.70;;;742.40;2278.40;;;;;;4975620;28;20451;-83
2021/06/25 07:30:32;;;;;;;30.15;7.78;;;742.60;2201.60;;;;;;4974182;28;20114;-81
2021/06/25 07:32:58;;;;;;;23.58;7.07;;;742.80;2150.40;;;;;;4973854;28;20023;-81
2021/06/25 07:35:24;;;;;;;19.65;7.05;;;742.80;2124.80;;;;;;4973880;28;20041;-85
2021/06/25 07:37:50;;;;;;;26.33;7.47;;;742.90;2124.80;;;;;;4974053;28;20118;-80
2021/06/25 07:40:16;;;;;;;21.98;5.90;;;742.70;2124.80;;;;;;4973879;28;20026;-81
2021/06/25 07:42:43;;;;;;;26.75;7.43;;;743.20;2099.20;;;;;;4975029;28;20436;-81
2021/06/25 07:45:10;;;;;;;26.55;7.97;;;743.20;2073.60;;;;;;4974590;28;20105;-84
2021/06/25 07:47:42;;;;;;;23.80;7.43;;;768.10;2124.80;;;;;;4973701;28;20019;-85
2021/06/25 07:50:12;;;;;;;30.08;10.18;;;768.20;2124.80;;;;;;4974234;28;20423;-83
2021/06/25 07:52:38;;;;;;;24.13;7.10;;;768.20;2124.80;;;;;;4973745;28;20054;-83
2021/06/25 07:55:05;;;;;;;23.45;6.88;;;768.40;2099.20;;;;;;4973379;28;20467;-79
2021/06/25 07:57:31;;;;;;;26.48;6.75;;;768.40;2099.20;;;;;;4973648;28;20053;-82
2021/06/25 07:59:56;;;;;;;30.30;7.30;;;768.50;2073.60;;;;;;4973676;28;20055;-78
2021/06/25 08:02:22;;;;;;;26.95;7.35;;;768.60;2073.60;;;;;;4974583;28;20018;-79
2021/06/25 08:04:48;;;;;;;37.50;8.30;;;768.80;2022.40;;;;;;4974960;28;20065;-82
2021/06/25 08:07:15;;;;;;;24.17;8.15;;;793.60;2048.00;;;;;;4973369;28;20049;-79
2021/06/25 08:09:42;;;;;;;33.08;8.00;;;793.70;2048.00;;;;;;4973468;28;20058;-80
2021/06/25 08:12:12;;;;;;;28.48;9.55;;;793.90;2022.40;;;;;;4974125;28;20038;-79
2021/06/25 08:14:38;;;;;;;31.08;9.50;;;793.90;2022.40;;;;;;4976294;28;20026;-80
2021/06/25 08:17:05;;;;;;;27.27;8.75;;;794.00;1996.80;;;;;;4976848;28;20014;-80
2021/06/25 08:19:31;;;;;;;23.55;7.20;;;794.20;1996.80;;;;;;4976782;28;20022;-80
2021/06/25 08:21:57;;;;;;;29.58;9.15;;;794.10;1996.80;;;;;;4977145;28;20363;-79
2021/06/25 08:24:23;;;;;;;27.58;9.70;;;794.30;1996.80;;;;;;4978524;28;20030;-82
2021/06/25 08:26:50;;;;;;;29.23;7.35;;;794.40;1971.20;;;;;;4976591;28;20026;-78
2021/06/25 08:29:15;;;;;;;33.00;9.43;;;794.30;1945.60;;;;;;4978069;28;20027;-78
2021/06/25 08:31:41;;;;;;;29.83;7.70;;;794.50;1945.60;;;;;;4977549;28;20061;-81
2021/06/25 08:34:10;;;;;;;30.50;8.38;;;819.20;1920.00;;;;;;4978160;28;20022;-77
2021/06/25 08:36:40;;;;;;;31.33;8.48;;;819.40;1894.40;;;;;;4976470;28;20034;-80
2021/06/25 08:39:06;;;;;;;26.60;9.95;;;819.60;1894.40;;;;;;4976970;28;20027;-79
2021/06/25 08:41:34;;;;;;;35.47;12.02;;;819.90;1868.80;;;;;;4976827;28;20030;-79
2021/06/25 08:44:01;;;;;;;35.88;15.20;;;820.10;1894.40;;;;;;4976792;28;20118;-77
2021/06/25 08:46:30;;;;;;;37.20;11.13;;;845.00;1868.80;;;;;;4978127;28;20033;-80
2021/06/25 08:48:58;;;;;;;21.13;6.03;;;844.90;1817.60;;;;;;4976719;28;20414;-78
2021/06/25 08:51:25;;;;;;;42.60;9.75;;;844.90;1843.20;;;;;;4976483;28;20022;-80
2021/06/25 08:53:52;;;;;;;34.80;15.95;;;845.20;1792.00;;;;;;4977026;28;20015;-78
2021/06/25 08:56:18;;;;;;;33.78;11.05;;;845.30;1817.60;;;;;;4976692;28;20121;-81
2021/06/25 08:58:44;;;;;;;31.02;9.73;;;845.50;1766.40;;;;;;4976920;28;20029;-80
2021/06/25 09:01:15;;;;;;;30.63;9.48;;;870.40;1664.00;;;;;;4976837;28;20023;-80
2021/06/25 09:03:42;;;;;;;29.27;9.18;;;870.50;1638.40;;;;;;4977639;28;20119;-80
2021/06/25 09:06:09;;;;;;;25.67;9.55;;;870.70;1612.80;;;;;;4976831;28;20023;-81
2021/06/25 09:08:35;;;;;;;26.30;9.50;;;870.70;1561.60;;;;;;4977658;28;20467;-81
2021/06/25 09:11:15;;;;;;;27.25;7.07;;;870.90;1561.60;;;;;;4976096;28;20050;-82
2021/06/25 09:13:41;;;;;;;25.77;8.18;;;870.70;1510.40;;;;;;4976572;28;20026;-82
2021/06/25 09:16:27;;;;;;;29.98;6.00;;;870.70;1587.20;;;;;;4976047;28;20522;-79
2021/06/25 09:18:59;;;;;;;31.10;12.82;;;870.90;1536.00;;;;;;4974625;28;20057;-80
2021/06/25 09:21:26;;;;;;;25.27;10.80;;;871.00;1587.20;;;;;;4976095;28;20051;-79
2021/06/25 09:23:52;;;;;;;29.33;7.97;;;871.10;1638.40;;;;;;4975005;28;20558;-80
2021/06/25 09:26:21;;;;;;;39.45;10.23;;;871.20;1638.40;;;;;;4976027;28;20137;-81
2021/06/25 09:28:48;;;;;;;26.90;7.30;;;871.30;1664.00;;;;;;4975859;28;20363;-83
2021/06/25 09:31:22;;;;;;;25.25;9.82;;;896.20;1664.00;;;;;;4975822;28;20031;-78
2021/06/25 09:33:58;;;;;;;33.90;10.77;;;896.30;1664.00;;;;;;4976026;28;20026;-80
2021/06/25 09:36:31;;;;;;;34.97;10.95;;;896.50;1715.20;;;;;;4975936;28;20030;-78
2021/06/25 09:39:01;;;;;;;27.02;9.20;;;896.80;1638.40;;;;;;4975651;28;20027;-82
2021/06/25 09:41:28;;;;;;;27.02;8.38;;;896.80;1612.80;;;;;;4976131;28;20034;-81
2021/06/25 09:43:59;;;;;;;28.17;10.73;;;896.80;1612.80;;;;;;4975800;28;20026;-79
2021/06/25 09:46:29;;;;;;;27.15;8.20;;;921.60;1612.80;;;;;;4977647;28;20027;-81
2021/06/25 09:48:58;;;;;;;40.15;9.55;;;921.90;1587.20;;;;;;4976491;28;20026;-81
2021/06/25 09:51:24;;;;;;;24.08;9.00;;;922.00;1561.60;;;;;;4975976;28;20022;-82
2021/06/25 09:54:12;;;;;;;26.15;9.80;;;922.20;1536.00;;;;;;4975815;28;20022;-80
2021/06/25 09:56:49;;;;;;;34.47;9.27;;;922.10;1561.60;;;;;;4975886;28;20097;-79
2021/06/25 10:02:22;;;;;;;29.80;9.60;;;922.40;1561.60;;;;;;4976513;28;20455;-81
2021/06/25 10:04:50;;;;;;;28.13;7.55;;;947.20;1536.00;;;;;;4976545;28;20034;-79
2021/06/25 10:07:27;;;;;;;35.67;10.02;;;947.20;1536.00;;;;;;4976483;28;20046;-81
2021/06/25 10:09:55;;;;;;;27.60;8.30;;;947.30;1536.00;;;;;;4976235;28;20026;-80
2021/06/25 10:12:23;;;;;;;31.30;9.10;;;947.50;1510.40;;;;;;4976978;28;20023;-79
2021/06/25 10:14:51;;;;;;;29.50;9.05;;;947.60;1459.20;;;;;;4975889;28;20026;-79
2021/06/25 10:17:18;;;;;;;25.90;8.18;;;947.70;1433.60;;;;;;4975278;28;20023;-83
2021/06/25 10:19:49;;;;;;;27.50;7.18;;;947.70;1433.60;;;;;;4975282;28;20023;-78
2021/06/25 10:22:25;;;;;;;43.78;10.20;;;947.70;1408.00;;;;;;4975105;28;20081;-79
2021/06/25 10:24:50;;;;;;;24.27;7.47;;;947.80;1433.60;;;;;;4975219;28;20455;-79
2021/06/25 10:27:22;;;;;;;27.92;11.25;;;948.10;1433.60;;;;;;4976001;28;20037;-80
2021/06/25 10:29:48;;;;;;;;;;;972.80;1459.20;;;;;;4976105;28;20027;-79
2021/06/25 10:32:18;;;;;;;43.88;14.77;;;972.90;1408.00;;;;;;4975071;28;19902;-83
2021/06/25 10:34:45;;;;;;;32.00;11.05;;;972.90;1382.40;;;;;;4974529;28;20124;-80
2021/06/25 10:37:20;;;;;;;30.13;8.93;;;973.20;1382.40;;;;;;4974170;28;20022;-80
2021/06/25 10:39:46;;;;;;;30.95;9.77;;;973.20;1356.80;;;;;;4974970;28;20014;-79
2021/06/25 10:42:12;;;;;;;26.67;8.90;;;973.40;1408.00;;;;;;4974665;28;20031;-80
2021/06/25 10:44:54;;;;;;;27.67;8.95;;;973.40;1408.00;;;;;;4975120;28;20489;-81
2021/06/25 10:47:32;;;;;;;31.08;9.15;;;973.60;1382.40;;;;;;4974767;28;20026;-81
2021/06/25 10:50:02;;;;;;;34.70;9.38;;;973.70;1356.80;;;;;;4974710;28;20034;-77
2021/06/25 10:52:35;;;;;;;29.23;7.22;;;973.60;1305.60;;;;;;4975018;28;20026;-79
2021/06/25 10:55:07;;;;;;;36.67;13.10;;;973.70;1305.60;;;;;;4974434;28;20186;-82
2021/06/25 10:57:48;;;;;;;28.98;7.22;;;973.70;1305.60;;;;;;4974430;28;20031;-81
2021/06/25 11:00:38;;;;;;;33.10;6.60;;;998.50;1280.00;;;;;;4975364;28;20027;-83
2021/06/25 11:03:27;;;;;;;22.60;6.18;;;998.40;1254.40;;;;;;4974653;28;20080;-81
2021/06/25 11:05:53;;;;;;;30.25;8.05;;;998.80;1280.00;;;;;;4974326;28;20031;-82
2021/06/25 11:08:20;;;;;;;24.95;7.72;;;998.80;1280.00;;;;;;4975796;28;20069;-79
2021/06/25 11:10:54;;;;;;;30.00;7.72;;;998.90;1280.00;;;;;;4973706;28;20126;-80
2021/06/25 11:13:22;;;;;;;33.60;7.50;;;999.00;1254.40;;;;;;4975052;28;20078;-80
2021/06/25 11:15:52;;;;;;;27.55;7.65;;;999.10;1254.40;;;;;;4974225;28;20049;-81
2021/06/25 11:18:20;;;;;;;29.88;8.38;;;998.80;1228.80;;;;;;4974308;28;20026;-84
2021/06/25 11:21:05;;;;;;;26.55;6.65;;;998.50;1254.40;;;;;;4974546;28;20451;-80
2021/06/25 11:23:42;;;;;;;29.92;7.03;;;973.70;1228.80;;;;;;4974114;28;20034;-81
2021/06/25 11:26:14;;;;;;;31.73;7.20;;;998.60;1280.00;;;;;;4974239;28;20403;-83
2021/06/25 11:28:42;;;;;;;25.65;6.15;;;998.80;1254.40;;;;;;4973862;28;20022;-82
2021/06/25 11:31:17;;;;;;;33.95;6.90;;;998.80;1280.00;;;;;;4974762;28;20062;-82
2021/06/25 11:33:58;;;;;;;24.30;6.05;;;999.10;1203.20;;;;;;4973717;28;20023;-83
2021/06/25 11:36:27;;;;;;;;;;;998.80;1203.20;;;;;;4974327;28;20034;-81
2021/06/25 11:39:12;;;;;;;21.13;6.57;;;998.60;1228.80;;;;;;4973874;28;19941;-81
2021/06/25 11:41:57;;;;;;;30.48;8.02;;;998.80;1254.40;;;;;;4975334;28;20031;-82
2021/06/25 11:44:38;;;;;;;29.77;7.38;;;998.90;1203.20;;;;;;4973732;28;20118;-81
2021/06/25 11:47:13;;;;;;;28.90;6.72;;;999.20;1228.80;;;;;;4975378;28;20022;-83
2021/06/25 11:52:21;;;;;;;;;;;1024.00;1152.00;;;;;;4979393;28;20023;-82
2021/06/25 11:54:51;;;;;;;26.58;6.63;;;1024.30;1177.60;;;;;;4977553;28;20061;-80
2021/06/25 11:57:23;;;;;;;27.13;6.80;;;1024.10;1152.00;;;;;;4977868;28;20117;-81
2021/06/25 12:00:08;;;;;;;27.77;6.90;;;999.30;1152.00;;;;;;4977651;28;20066;-81
2021/06/25 12:02:53;;;;;;;19.67;6.53;;;1024.10;1126.40;;;;;;4977964;28;20490;-83
2021/06/25 12:05:29;;;;;;;21.05;5.88;;;1024.10;1126.40;;;;;;4978875;28;20039;-81
2021/06/25 12:08:14;;;;;;;21.10;6.70;;;1024.10;1126.40;;;;;;4977679;28;20497;-83
2021/06/25 12:11:00;;;;;;;20.50;6.00;;;999.20;1126.40;;;;;;4978098;28;20122;-83
2021/06/25 12:13:29;;;;;;;25.00;6.53;;;999.00;1177.60;;;;;;4978691;28;20023;-84
2021/06/25 12:15:55;;;;;;;32.80;6.57;;;999.30;1126.40;;;;;;4977221;28;20091;-79
2021/06/25 12:18:26;;;;;;;22.40;6.30;;;999.30;1126.40;;;;;;4977349;28;20085;-82
2021/06/25 12:21:11;;;;;;;;;;;1024.30;1203.20;;;;;;4977786;28;20106;-82
2021/06/25 12:23:38;;;;;;;20.73;6.15;;;1024.20;1152.00;;;;;;4977793;28;19929;-82
2021/06/25 12:26:18;;;;;;;27.58;6.60;;;1024.10;1126.40;;;;;;4977704;28;20030;-82
2021/06/25 12:28:46;;;;;;;17.38;5.68;;;1024.10;1177.60;;;;;;4977386;28;20018;-83